sensor_id;sensor_type;location;lat;lon;timestamp;P1;durP1;ratioP1;P2;durP2;ratioP2
35977;SDS011;22056;0.000;0.000;2023-03-20T00:00:41;0.30;;;0.30;;
35977;SDS011;22056;0.000;0.000;2023-03-20T00:03:10;0.30;;;0.30;;
35977;SDS011;22056;0.000;0.000;2023-03-20T00:05:37;0.30;;;0.30;;
35977;SDS011;22056;0.000;0.000;2023-03-20T00:08:03;0.65;;;0.30;;
35977;SDS011;22056;0.000;0.000;2023-03-20T00:10:31;0.30;;;0.30;;
35977;SDS011;22056;0.000;0.000;2023-03-20T00:12:59;0.30;;;0.30;;
35977;SDS011;22056;0.000;0.000;2023-03-20T00:15:29;0.30;;;0.30;;
35977;SDS011;22056;0.000;0.000;2023-03-20T00:17:56;0.40;;;0.40;;
35977;SDS011;22056;0.000;0.000;2023-03-20T00:20:23;0.20;;;0.20;;
35977;SDS011;22056;0.000;0.000;2023-03-20T00:22:49;0.20;;;0.20;;
35977;SDS011;22056;0.000;0.000;2023-03-20T00:25:17;0.30;;;0.30;;
35977;SDS011;22056;0.000;0.000;2023-03-20T00:27:44;0.30;;;0.30;;
35977;SDS011;22056;0.000;0.000;2023-03-20T00:30:28;0.30;;;0.30;;
35977;SDS011;22056;0.000;0.000;2023-03-20T00:32:56;0.35;;;0.35;;
35977;SDS011;22056;0.000;0.000;2023-03-20T00:35:23;0.30;;;0.30;;
35977;SDS011;22056;0.000;0.000;2023-03-20T00:37:50;0.30;;;0.30;;
35977;SDS011;22056;0.000;0.000;2023-03-20T00:40:17;0.30;;;0.30;;
35977;SDS011;22056;0.000;0.000;2023-03-20T00:42:48;0.40;;;0.40;;
35977;SDS011;22056;0.000;0.000;2023-03-20T00:45:17;0.40;;;0.40;;
35977;SDS011;22056;0.000;0.000;2023-03-20T00:47:44;0.25;;;0.25;;
35977;SDS011;22056;0.000;0.000;2023-03-20T00:50:16;0.40;;;0.40;;
35977;SDS011;22056;0.000;0.000;2023-03-20T00:52:42;0.40;;;0.40;;
35977;SDS011;22056;0.000;0.000;2023-03-20T00:55:09;0.30;;;0.30;;
35977;SDS011;22056;0.000;0.000;2023-03-20T00:57:48;0.50;;;0.50;;
35977;SDS011;22056;0.000;0.000;2023-03-20T01:02:44;0.32;;;0.32;;
35977;SDS011;22056;0.000;0.000;2023-03-20T01:05:10;0.20;;;0.20;;
35977;SDS011;22056;0.000;0.000;2023-03-20T01:07:37;0.30;;;0.30;;
35977;SDS011;22056;0.000;0.000;2023-03-20T01:10:04;0.30;;;0.30;;
35977;SDS011;22056;0.000;0.000;2023-03-20T01:12:30;0.30;;;0.30;;
35977;SDS011;22056;0.000;0.000;2023-03-20T01:14:56;0.35;;;0.35;;
35977;SDS011;22056;0.000;0.000;2023-03-20T01:17:24;0.40;;;0.40;;
35977;SDS011;22056;0.000;0.000;2023-03-20T01:19:50;0.30;;;0.30;;
35977;SDS011;22056;0.000;0.000;2023-03-20T01:22:17;0.32;;;0.30;;
35977;SDS011;22056;0.000;0.000;2023-03-20T01:24:43;0.35;;;0.35;;
35977;SDS011;22056;0.000;0.000;2023-03-20T01:27:13;0.30;;;0.30;;
35977;SDS011;22056;0.000;0.000;2023-03-20T01:29:39;0.30;;;0.30;;
35977;SDS011;22056;0.000;0.000;2023-03-20T01:32:14;0.40;;;0.40;;
35977;SDS011;22056;0.000;0.000;2023-03-20T01:34:40;0.32;;;0.32;;
35977;SDS011;22056;0.000;0.000;2023-03-20T01:37:11;0.40;;;0.40;;
35977;SDS011;22056;0.000;0.000;2023-03-20T01:39:38;0.30;;;0.30;;
35977;SDS011;22056;0.000;0.000;2023-03-20T01:42:05;0.35;;;0.35;;
35977;SDS011;22056;0.000;0.000;2023-03-20T01:44:32;0.32;;;0.32;;
35977;SDS011;22056;0.000;0.000;2023-03-20T01:46:59;0.30;;;0.30;;
35977;SDS011;22056;0.000;0.000;2023-03-20T01:51:53;0.30;;;0.30;;
35977;SDS011;22056;0.000;0.000;2023-03-20T01:54:24;0.40;;;0.40;;
35977;SDS011;22056;0.000;0.000;2023-03-20T01:59:40;0.30;;;0.30;;
35977;SDS011;22056;0.000;0.000;2023-03-20T02:02:04;0.32;;;0.32;;
35977;SDS011;22056;0.000;0.000;2023-03-20T02:04:35;0.40;;;0.40;;
35977;SDS011;22056;0.000;0.000;2023-03-20T02:07:03;0.30;;;0.30;;
35977;SDS011;22056;0.000;0.000;2023-03-20T02:09:30;0.50;;;0.50;;
35977;SDS011;22056;0.000;0.000;2023-03-20T02:11:56;0.40;;;0.40;;
35977;SDS011;22056;0.000;0.000;2023-03-20T02:14:23;0.30;;;0.30;;
35977;SDS011;22056;0.000;0.000;2023-03-20T02:16:51;0.38;;;0.38;;
35977;SDS011;22056;0.000;0.000;2023-03-20T02:19:28;0.30;;;0.30;;
35977;SDS011;22056;0.000;0.000;2023-03-20T02:43:01;0.30;;;0.30;;
35977;SDS011;22056;0.000;0.000;2023-03-20T02:45:28;0.40;;;0.40;;
35977;SDS011;22056;0.000;0.000;2023-03-20T02:58:08;0.40;;;0.40;;
35977;SDS011;22056;0.000;0.000;2023-03-20T03:00:41;0.40;;;0.40;;
35977;SDS011;22056;0.000;0.000;2023-03-20T03:06:28;0.30;;;0.30;;
35977;SDS011;22056;0.000;0.000;2023-03-20T03:09:12;0.40;;;0.40;;
35977;SDS011;22056;0.000;0.000;2023-03-20T03:11:43;0.35;;;0.35;;
35977;SDS011;22056;0.000;0.000;2023-03-20T03:14:14;0.40;;;0.40;;
35977;SDS011;22056;0.000;0.000;2023-03-20T03:16:42;0.40;;;0.40;;
35977;SDS011;22056;0.000;0.000;2023-03-20T03:19:14;0.50;;;0.50;;
35977;SDS011;22056;0.000;0.000;2023-03-20T03:21:42;0.40;;;0.40;;
35977;SDS011;22056;0.000;0.000;2023-03-20T03:24:20;0.43;;;0.43;;
35977;SDS011;22056;0.000;0.000;2023-03-20T03:26:48;0.40;;;0.40;;
35977;SDS011;22056;0.000;0.000;2023-03-20T03:29:15;0.40;;;0.40;;
35977;SDS011;22056;0.000;0.000;2023-03-20T03:31:43;0.40;;;0.40;;
35977;SDS011;22056;0.000;0.000;2023-03-20T03:34:11;0.40;;;0.40;;
35977;SDS011;22056;0.000;0.000;2023-03-20T03:39:15;0.40;;;0.40;;
35977;SDS011;22056;0.000;0.000;2023-03-20T03:41:55;0.50;;;0.50;;
35977;SDS011;22056;0.000;0.000;2023-03-20T03:44:25;0.40;;;0.40;;
35977;SDS011;22056;0.000;0.000;2023-03-20T03:46:53;0.50;;;0.50;;
35977;SDS011;22056;0.000;0.000;2023-03-20T03:49:22;0.40;;;0.35;;
35977;SDS011;22056;0.000;0.000;2023-03-20T03:51:49;0.40;;;0.40;;
35977;SDS011;22056;0.000;0.000;2023-03-20T03:54:18;0.40;;;0.40;;
35977;SDS011;22056;0.000;0.000;2023-03-20T03:56:46;0.40;;;0.40;;
35977;SDS011;22056;0.000;0.000;2023-03-20T03:59:22;0.50;;;0.50;;
35977;SDS011;22056;0.000;0.000;2023-03-20T04:01:49;0.40;;;0.40;;
35977;SDS011;22056;0.000;0.000;2023-03-20T04:04:17;0.40;;;0.40;;
35977;SDS011;22056;0.000;0.000;2023-03-20T04:06:44;0.35;;;0.35;;
35977;SDS011;22056;0.000;0.000;2023-03-20T04:09:10;0.40;;;0.40;;
35977;SDS011;22056;0.000;0.000;2023-03-20T04:11:36;0.30;;;0.30;;
35977;SDS011;22056;0.000;0.000;2023-03-20T04:14:03;0.40;;;0.40;;
35977;SDS011;22056;0.000;0.000;2023-03-20T04:16:29;0.40;;;0.40;;
35977;SDS011;22056;0.000;0.000;2023-03-20T04:18:55;0.85;;;0.47;;
35977;SDS011;22056;0.000;0.000;2023-03-20T04:21:21;0.50;;;0.50;;
35977;SDS011;22056;0.000;0.000;2023-03-20T04:23:47;0.40;;;0.40;;
35977;SDS011;22056;0.000;0.000;2023-03-20T04:26:13;0.40;;;0.40;;
35977;SDS011;22056;0.000;0.000;2023-03-20T04:28:40;0.40;;;0.30;;
35977;SDS011;22056;0.000;0.000;2023-03-20T04:31:06;0.55;;;0.40;;
35977;SDS011;22056;0.000;0.000;2023-03-20T04:33:32;0.40;;;0.40;;
35977;SDS011;22056;0.000;0.000;2023-03-20T04:35:58;0.40;;;0.40;;
35977;SDS011;22056;0.000;0.000;2023-03-20T04:38:25;0.40;;;0.40;;
35977;SDS011;22056;0.000;0.000;2023-03-20T04:40:51;0.40;;;0.40;;
35977;SDS011;22056;0.000;0.000;2023-03-20T04:43:17;0.40;;;0.40;;
35977;SDS011;22056;0.000;0.000;2023-03-20T04:45:43;0.40;;;0.40;;
35977;SDS011;22056;0.000;0.000;2023-03-20T04:48:09;0.22;;;0.22;;
35977;SDS011;22056;0.000;0.000;2023-03-20T04:50:36;0.40;;;0.40;;
35977;SDS011;22056;0.000;0.000;2023-03-20T04:53:02;0.40;;;0.40;;
35977;SDS011;22056;0.000;0.000;2023-03-20T04:55:28;0.30;;;0.30;;
35977;SDS011;22056;0.000;0.000;2023-03-20T04:57:54;0.30;;;0.30;;
35977;SDS011;22056;0.000;0.000;2023-03-20T05:03:15;0.50;;;0.47;;
35977;SDS011;22056;0.000;0.000;2023-03-20T05:05:41;0.40;;;0.30;;
35977;SDS011;22056;0.000;0.000;2023-03-20T05:08:08;0.40;;;0.40;;
35977;SDS011;22056;0.000;0.000;2023-03-20T05:10:34;0.40;;;0.40;;
35977;SDS011;22056;0.000;0.000;2023-03-20T05:13:00;0.38;;;0.38;;
35977;SDS011;22056;0.000;0.000;2023-03-20T05:15:26;0.40;;;0.40;;
35977;SDS011;22056;0.000;0.000;2023-03-20T05:17:52;0.40;;;0.40;;
35977;SDS011;22056;0.000;0.000;2023-03-20T05:20:19;0.40;;;0.40;;
35977;SDS011;22056;0.000;0.000;2023-03-20T05:22:47;0.30;;;0.30;;
35977;SDS011;22056;0.000;0.000;2023-03-20T05:25:13;0.47;;;0.40;;
35977;SDS011;22056;0.000;0.000;2023-03-20T05:27:40;0.30;;;0.30;;
35977;SDS011;22056;0.000;0.000;2023-03-20T05:30:06;0.40;;;0.40;;
35977;SDS011;22056;0.000;0.000;2023-03-20T05:32:32;1.88;;;0.40;;
35977;SDS011;22056;0.000;0.000;2023-03-20T05:35:00;1.90;;;0.40;;
35977;SDS011;22056;0.000;0.000;2023-03-20T05:37:26;0.50;;;0.50;;
35977;SDS011;22056;0.000;0.000;2023-03-20T05:39:52;0.85;;;0.60;;
35977;SDS011;22056;0.000;0.000;2023-03-20T05:42:18;0.70;;;0.40;;
35977;SDS011;22056;0.000;0.000;2023-03-20T05:44:44;0.90;;;0.40;;
35977;SDS011;22056;0.000;0.000;2023-03-20T05:47:10;1.58;;;0.43;;
35977;SDS011;22056;0.000;0.000;2023-03-20T05:49:36;0.90;;;0.50;;
35977;SDS011;22056;0.000;0.000;2023-03-20T05:52:02;0.40;;;0.40;;
35977;SDS011;22056;0.000;0.000;2023-03-20T05:54:29;1.33;;;0.40;;
35977;SDS011;22056;0.000;0.000;2023-03-20T05:56:55;1.65;;;0.50;;
35977;SDS011;22056;0.000;0.000;2023-03-20T05:59:21;1.38;;;0.63;;
35977;SDS011;22056;0.000;0.000;2023-03-20T06:01:47;2.97;;;0.60;;
35977;SDS011;22056;0.000;0.000;2023-03-20T06:04:13;2.40;;;0.70;;
35977;SDS011;22056;0.000;0.000;2023-03-20T06:06:40;2.72;;;0.60;;
35977;SDS011;22056;0.000;0.000;2023-03-20T06:09:06;0.95;;;0.75;;
35977;SDS011;22056;0.000;0.000;2023-03-20T06:11:32;1.48;;;0.70;;
35977;SDS011;22056;0.000;0.000;2023-03-20T06:13:58;0.82;;;0.50;;
35977;SDS011;22056;0.000;0.000;2023-03-20T06:16:24;0.98;;;0.50;;
35977;SDS011;22056;0.000;0.000;2023-03-20T06:18:51;0.95;;;0.50;;
35977;SDS011;22056;0.000;0.000;2023-03-20T06:21:17;3.00;;;0.80;;
35977;SDS011;22056;0.000;0.000;2023-03-20T06:23:43;1.23;;;0.57;;
35977;SDS011;22056;0.000;0.000;2023-03-20T06:26:10;2.28;;;0.68;;
35977;SDS011;22056;0.000;0.000;2023-03-20T06:28:36;3.40;;;0.75;;
35977;SDS011;22056;0.000;0.000;2023-03-20T06:31:03;1.67;;;0.70;;
35977;SDS011;22056;0.000;0.000;2023-03-20T06:33:29;1.35;;;0.60;;
35977;SDS011;22056;0.000;0.000;2023-03-20T06:35:55;0.80;;;0.70;;
35977;SDS011;22056;0.000;0.000;2023-03-20T06:38:21;3.05;;;0.73;;
35977;SDS011;22056;0.000;0.000;2023-03-20T06:40:47;1.63;;;0.70;;
35977;SDS011;22056;0.000;0.000;2023-03-20T06:43:13;3.55;;;0.70;;
35977;SDS011;22056;0.000;0.000;2023-03-20T06:45:40;3.13;;;0.73;;
35977;SDS011;22056;0.000;0.000;2023-03-20T06:48:06;5.68;;;0.90;;
35977;SDS011;22056;0.000;0.000;2023-03-20T06:50:33;2.88;;;0.70;;
35977;SDS011;22056;0.000;0.000;2023-03-20T06:52:59;1.45;;;0.70;;
35977;SDS011;22056;0.000;0.000;2023-03-20T06:55:25;2.38;;;0.80;;
35977;SDS011;22056;0.000;0.000;2023-03-20T06:57:51;2.42;;;0.68;;
35977;SDS011;22056;0.000;0.000;2023-03-20T07:00:17;2.55;;;0.60;;
35977;SDS011;22056;0.000;0.000;2023-03-20T07:02:45;1.92;;;0.80;;
35977;SDS011;22056;0.000;0.000;2023-03-20T07:05:13;3.17;;;0.80;;
35977;SDS011;22056;0.000;0.000;2023-03-20T07:07:39;2.70;;;0.70;;
35977;SDS011;22056;0.000;0.000;2023-03-20T07:10:06;2.17;;;0.60;;
35977;SDS011;22056;0.000;0.000;2023-03-20T07:12:34;1.88;;;0.68;;
35977;SDS011;22056;0.000;0.000;2023-03-20T07:15:00;2.85;;;1.02;;
35977;SDS011;22056;0.000;0.000;2023-03-20T07:17:26;2.30;;;0.80;;
35977;SDS011;22056;0.000;0.000;2023-03-20T07:19:52;2.75;;;0.70;;
35977;SDS011;22056;0.000;0.000;2023-03-20T07:22:20;3.17;;;0.70;;
35977;SDS011;22056;0.000;0.000;2023-03-20T07:24:47;3.20;;;0.88;;
35977;SDS011;22056;0.000;0.000;2023-03-20T07:27:13;2.35;;;0.70;;
35977;SDS011;22056;0.000;0.000;2023-03-20T07:29:40;4.10;;;0.85;;
35977;SDS011;22056;0.000;0.000;2023-03-20T07:32:07;4.03;;;1.00;;
35977;SDS011;22056;0.000;0.000;2023-03-20T07:34:33;3.22;;;0.80;;
35977;SDS011;22056;0.000;0.000;2023-03-20T07:36:59;9.25;;;1.00;;
35977;SDS011;22056;0.000;0.000;2023-03-20T07:39:25;3.70;;;0.80;;
35977;SDS011;22056;0.000;0.000;2023-03-20T07:41:52;4.22;;;1.13;;
35977;SDS011;22056;0.000;0.000;2023-03-20T07:44:19;2.10;;;0.70;;
35977;SDS011;22056;0.000;0.000;2023-03-20T07:46:45;3.10;;;0.77;;
35977;SDS011;22056;0.000;0.000;2023-03-20T07:49:15;1.88;;;0.77;;
35977;SDS011;22056;0.000;0.000;2023-03-20T07:51:45;2.45;;;0.77;;
35977;SDS011;22056;0.000;0.000;2023-03-20T07:54:12;2.28;;;0.80;;
35977;SDS011;22056;0.000;0.000;2023-03-20T07:56:39;3.00;;;0.90;;
35977;SDS011;22056;0.000;0.000;2023-03-20T07:59:05;5.10;;;0.90;;
35977;SDS011;22056;0.000;0.000;2023-03-20T08:01:31;3.25;;;0.80;;
35977;SDS011;22056;0.000;0.000;2023-03-20T08:03:58;5.53;;;0.88;;
35977;SDS011;22056;0.000;0.000;2023-03-20T08:06:24;4.65;;;0.90;;
35977;SDS011;22056;0.000;0.000;2023-03-20T08:08:50;3.42;;;0.90;;
35977;SDS011;22056;0.000;0.000;2023-03-20T08:11:17;1.80;;;0.80;;
35977;SDS011;22056;0.000;0.000;2023-03-20T08:13:43;3.58;;;0.65;;
35977;SDS011;22056;0.000;0.000;2023-03-20T08:16:09;3.92;;;1.10;;
35977;SDS011;22056;0.000;0.000;2023-03-20T08:18:36;4.88;;;1.10;;
35977;SDS011;22056;0.000;0.000;2023-03-20T08:21:03;4.75;;;1.10;;
35977;SDS011;22056;0.000;0.000;2023-03-20T08:23:29;2.30;;;1.00;;
35977;SDS011;22056;0.000;0.000;2023-03-20T08:25:55;2.97;;;0.88;;
35977;SDS011;22056;0.000;0.000;2023-03-20T08:28:21;6.85;;;1.10;;
35977;SDS011;22056;0.000;0.000;2023-03-20T08:30:48;5.55;;;0.88;;
35977;SDS011;22056;0.000;0.000;2023-03-20T08:33:15;3.03;;;0.88;;
35977;SDS011;22056;0.000;0.000;2023-03-20T08:35:41;3.03;;;1.05;;
35977;SDS011;22056;0.000;0.000;2023-03-20T08:38:10;3.30;;;0.98;;
35977;SDS011;22056;0.000;0.000;2023-03-20T08:40:40;1.30;;;0.68;;
35977;SDS011;22056;0.000;0.000;2023-03-20T08:43:07;4.63;;;1.08;;
35977;SDS011;22056;0.000;0.000;2023-03-20T08:45:34;5.63;;;0.95;;
35977;SDS011;22056;0.000;0.000;2023-03-20T08:48:00;3.20;;;0.98;;
35977;SDS011;22056;0.000;0.000;2023-03-20T08:50:27;2.50;;;0.98;;
35977;SDS011;22056;0.000;0.000;2023-03-20T08:52:54;5.50;;;1.23;;
35977;SDS011;22056;0.000;0.000;2023-03-20T08:55:20;4.47;;;0.90;;
35977;SDS011;22056;0.000;0.000;2023-03-20T08:57:46;2.67;;;1.00;;
35977;SDS011;22056;0.000;0.000;2023-03-20T09:00:13;2.33;;;1.25;;
35977;SDS011;22056;0.000;0.000;2023-03-20T09:02:43;2.97;;;0.80;;
35977;SDS011;22056;0.000;0.000;2023-03-20T09:05:09;8.98;;;1.30;;
35977;SDS011;22056;0.000;0.000;2023-03-20T09:07:36;6.25;;;1.10;;
35977;SDS011;22056;0.000;0.000;2023-03-20T09:10:03;3.80;;;0.93;;
35977;SDS011;22056;0.000;0.000;2023-03-20T09:12:29;3.13;;;0.90;;
35977;SDS011;22056;0.000;0.000;2023-03-20T09:14:57;1.67;;;0.73;;
35977;SDS011;22056;0.000;0.000;2023-03-20T09:17:23;4.40;;;1.23;;
35977;SDS011;22056;0.000;0.000;2023-03-20T09:19:49;3.10;;;1.10;;
35977;SDS011;22056;0.000;0.000;2023-03-20T09:22:15;2.30;;;0.80;;
35977;SDS011;22056;0.000;0.000;2023-03-20T09:24:42;3.90;;;1.10;;
35977;SDS011;22056;0.000;0.000;2023-03-20T09:27:08;2.83;;;1.00;;
35977;SDS011;22056;0.000;0.000;2023-03-20T09:29:38;2.25;;;0.90;;
35977;SDS011;22056;0.000;0.000;2023-03-20T09:32:04;7.50;;;1.05;;
35977;SDS011;22056;0.000;0.000;2023-03-20T09:34:30;3.63;;;1.02;;
35977;SDS011;22056;0.000;0.000;2023-03-20T09:36:56;2.30;;;0.90;;
35977;SDS011;22056;0.000;0.000;2023-03-20T09:39:23;5.43;;;1.10;;
35977;SDS011;22056;0.000;0.000;2023-03-20T09:41:50;6.22;;;1.00;;
35977;SDS011;22056;0.000;0.000;2023-03-20T09:44:21;5.10;;;1.15;;
35977;SDS011;22056;0.000;0.000;2023-03-20T09:51:59;3.65;;;1.15;;
35977;SDS011;22056;0.000;0.000;2023-03-20T09:54:26;6.75;;;1.27;;
35977;SDS011;22056;0.000;0.000;2023-03-20T09:56:54;4.45;;;0.90;;
35977;SDS011;22056;0.000;0.000;2023-03-20T09:59:22;4.28;;;1.33;;
35977;SDS011;22056;0.000;0.000;2023-03-20T10:01:54;3.38;;;1.10;;
35977;SDS011;22056;0.000;0.000;2023-03-20T10:04:24;3.25;;;0.82;;
35977;SDS011;22056;0.000;0.000;2023-03-20T10:06:52;2.83;;;0.77;;
35977;SDS011;22056;0.000;0.000;2023-03-20T10:09:26;2.47;;;0.85;;
35977;SDS011;22056;0.000;0.000;2023-03-20T10:14:42;4.75;;;1.15;;
35977;SDS011;22056;0.000;0.000;2023-03-20T10:17:15;4.68;;;1.50;;
35977;SDS011;22056;0.000;0.000;2023-03-20T10:19:47;2.47;;;1.17;;
35977;SDS011;22056;0.000;0.000;2023-03-20T10:32:42;7.80;;;1.27;;
35977;SDS011;22056;0.000;0.000;2023-03-20T10:35:25;5.43;;;1.20;;
35977;SDS011;22056;0.000;0.000;2023-03-20T10:38:00;4.15;;;1.40;;
35977;SDS011;22056;0.000;0.000;2023-03-20T10:40:34;2.75;;;1.38;;
35977;SDS011;22056;0.000;0.000;2023-03-20T10:43:02;2.53;;;1.02;;
35977;SDS011;22056;0.000;0.000;2023-03-20T10:48:01;2.20;;;0.90;;
35977;SDS011;22056;0.000;0.000;2023-03-20T10:50:39;6.20;;;1.30;;
35977;SDS011;22056;0.000;0.000;2023-03-20T10:53:09;2.55;;;0.90;;
35977;SDS011;22056;0.000;0.000;2023-03-20T10:55:44;3.85;;;1.20;;
35977;SDS011;22056;0.000;0.000;2023-03-20T11:00:44;5.05;;;1.38;;
35977;SDS011;22056;0.000;0.000;2023-03-20T11:03:26;2.83;;;0.98;;
35977;SDS011;22056;0.000;0.000;2023-03-20T11:06:03;3.90;;;1.20;;
35977;SDS011;22056;0.000;0.000;2023-03-20T11:08:33;6.30;;;1.60;;
35977;SDS011;22056;0.000;0.000;2023-03-20T11:11:01;4.10;;;1.00;;
35977;SDS011;22056;0.000;0.000;2023-03-20T11:13:32;4.68;;;1.00;;
35977;SDS011;22056;0.000;0.000;2023-03-20T11:16:41;1.88;;;1.08;;
35977;SDS011;22056;0.000;0.000;2023-03-20T11:18:49;4.25;;;1.15;;
35977;SDS011;22056;0.000;0.000;2023-03-20T11:21:29;4.28;;;1.15;;
35977;SDS011;22056;0.000;0.000;2023-03-20T11:23:59;4.03;;;1.20;;
35977;SDS011;22056;0.000;0.000;2023-03-20T11:26:34;2.75;;;0.93;;
35977;SDS011;22056;0.000;0.000;2023-03-20T11:29:01;1.90;;;1.00;;
35977;SDS011;22056;0.000;0.000;2023-03-20T11:31:34;3.45;;;1.00;;
35977;SDS011;22056;0.000;0.000;2023-03-20T11:36:30;4.15;;;1.30;;
35977;SDS011;22056;0.000;0.000;2023-03-20T11:41:30;2.92;;;1.10;;
35977;SDS011;22056;0.000;0.000;2023-03-20T11:43:57;3.70;;;1.17;;
35977;SDS011;22056;0.000;0.000;2023-03-20T11:46:23;6.10;;;1.33;;
35977;SDS011;22056;0.000;0.000;2023-03-20T11:49:01;3.22;;;0.90;;
35977;SDS011;22056;0.000;0.000;2023-03-20T11:51:27;2.60;;;0.90;;
35977;SDS011;22056;0.000;0.000;2023-03-20T11:53:56;5.20;;;1.15;;
35977;SDS011;22056;0.000;0.000;2023-03-20T11:56:26;4.75;;;1.08;;
35977;SDS011;22056;0.000;0.000;2023-03-20T12:01:37;3.30;;;1.10;;
35977;SDS011;22056;0.000;0.000;2023-03-20T12:04:10;2.97;;;0.85;;
35977;SDS011;22056;0.000;0.000;2023-03-20T12:06:49;2.90;;;1.20;;
35977;SDS011;22056;0.000;0.000;2023-03-20T12:11:54;3.92;;;1.10;;
35977;SDS011;22056;0.000;0.000;2023-03-20T12:14:24;2.22;;;0.90;;
35977;SDS011;22056;0.000;0.000;2023-03-20T12:16:59;4.07;;;1.15;;
35977;SDS011;22056;0.000;0.000;2023-03-20T12:19:28;4.22;;;1.25;;
35977;SDS011;22056;0.000;0.000;2023-03-20T12:22:14;2.30;;;0.95;;
35977;SDS011;22056;0.000;0.000;2023-03-20T12:27:32;4.75;;;1.30;;
35977;SDS011;22056;0.000;0.000;2023-03-20T12:35:09;4.32;;;0.98;;
35977;SDS011;22056;0.000;0.000;2023-03-20T12:37:38;2.35;;;0.75;;
35977;SDS011;22056;0.000;0.000;2023-03-20T12:40:04;5.15;;;0.95;;
35977;SDS011;22056;0.000;0.000;2023-03-20T12:47:32;3.53;;;1.27;;
35977;SDS011;22056;0.000;0.000;2023-03-20T12:58:00;4.32;;;0.98;;
35977;SDS011;22056;0.000;0.000;2023-03-20T13:05:45;3.72;;;1.45;;
35977;SDS011;22056;0.000;0.000;2023-03-20T13:08:16;3.40;;;1.00;;
35977;SDS011;22056;0.000;0.000;2023-03-20T13:18:18;4.05;;;1.00;;
35977;SDS011;22056;0.000;0.000;2023-03-20T13:20:51;1.40;;;0.85;;
35977;SDS011;22056;0.000;0.000;2023-03-20T13:30:45;2.63;;;1.00;;
35977;SDS011;22056;0.000;0.000;2023-03-20T13:38:47;4.82;;;1.10;;
35977;SDS011;22056;0.000;0.000;2023-03-20T13:41:16;5.22;;;1.13;;
35977;SDS011;22056;0.000;0.000;2023-03-20T13:43:47;4.55;;;1.65;;
35977;SDS011;22056;0.000;0.000;2023-03-20T13:46:18;4.32;;;1.15;;
35977;SDS011;22056;0.000;0.000;2023-03-20T13:48:46;4.95;;;1.10;;
35977;SDS011;22056;0.000;0.000;2023-03-20T13:51:22;3.58;;;1.25;;
35977;SDS011;22056;0.000;0.000;2023-03-20T14:04:45;6.88;;;1.40;;
35977;SDS011;22056;0.000;0.000;2023-03-20T14:07:32;6.13;;;1.60;;
35977;SDS011;22056;0.000;0.000;2023-03-20T14:10:42;5.93;;;1.17;;
35977;SDS011;22056;0.000;0.000;2023-03-20T14:15:20;4.05;;;1.13;;
35977;SDS011;22056;0.000;0.000;2023-03-20T14:17:47;8.55;;;1.45;;
35977;SDS011;22056;0.000;0.000;2023-03-20T14:20:21;6.15;;;1.27;;
35977;SDS011;22056;0.000;0.000;2023-03-20T14:22:48;5.22;;;1.35;;
35977;SDS011;22056;0.000;0.000;2023-03-20T14:25:18;4.45;;;1.33;;
35977;SDS011;22056;0.000;0.000;2023-03-20T14:27:59;6.00;;;1.30;;
35977;SDS011;22056;0.000;0.000;2023-03-20T14:33:36;4.70;;;1.40;;
35977;SDS011;22056;0.000;0.000;2023-03-20T14:38:30;6.43;;;1.30;;
35977;SDS011;22056;0.000;0.000;2023-03-20T14:43:53;5.78;;;1.20;;
35977;SDS011;22056;0.000;0.000;2023-03-20T14:46:50;3.10;;;1.10;;
35977;SDS011;22056;0.000;0.000;2023-03-20T14:51:50;5.25;;;1.48;;
35977;SDS011;22056;0.000;0.000;2023-03-20T14:56:49;4.55;;;1.10;;
35977;SDS011;22056;0.000;0.000;2023-03-20T14:59:16;2.88;;;1.13;;
35977;SDS011;22056;0.000;0.000;2023-03-20T15:01:46;4.60;;;1.15;;
35977;SDS011;22056;0.000;0.000;2023-03-20T15:04:21;6.68;;;1.30;;
35977;SDS011;22056;0.000;0.000;2023-03-20T15:07:30;4.95;;;1.20;;
35977;SDS011;22056;0.000;0.000;2023-03-20T15:09:37;2.70;;;1.15;;
35977;SDS011;22056;0.000;0.000;2023-03-20T15:12:07;5.88;;;1.17;;
35977;SDS011;22056;0.000;0.000;2023-03-20T15:14:37;3.83;;;1.20;;
35977;SDS011;22056;0.000;0.000;2023-03-20T15:17:05;3.85;;;1.00;;
35977;SDS011;22056;0.000;0.000;2023-03-20T15:19:31;2.58;;;1.00;;
35977;SDS011;22056;0.000;0.000;2023-03-20T15:22:02;3.10;;;1.00;;
35977;SDS011;22056;0.000;0.000;2023-03-20T15:24:28;9.02;;;1.42;;
35977;SDS011;22056;0.000;0.000;2023-03-20T15:26:56;5.88;;;1.20;;
35977;SDS011;22056;0.000;0.000;2023-03-20T15:29:23;4.97;;;1.48;;
35977;SDS011;22056;0.000;0.000;2023-03-20T15:31:50;5.93;;;1.15;;
35977;SDS011;22056;0.000;0.000;2023-03-20T15:34:24;2.75;;;0.98;;
35977;SDS011;22056;0.000;0.000;2023-03-20T15:36:52;3.72;;;0.85;;
35977;SDS011;22056;0.000;0.000;2023-03-20T15:39:21;9.23;;;1.50;;
35977;SDS011;22056;0.000;0.000;2023-03-20T15:44:18;3.00;;;1.00;;
35977;SDS011;22056;0.000;0.000;2023-03-20T15:49:22;6.13;;;1.10;;
35977;SDS011;22056;0.000;0.000;2023-03-20T15:51:49;4.00;;;1.20;;
35977;SDS011;22056;0.000;0.000;2023-03-20T15:54:16;4.75;;;1.27;;
35977;SDS011;22056;0.000;0.000;2023-03-20T15:56:44;5.15;;;1.27;;
35977;SDS011;22056;0.000;0.000;2023-03-20T15:59:15;7.25;;;2.03;;
35977;SDS011;22056;0.000;0.000;2023-03-20T16:01:42;5.43;;;1.27;;
35977;SDS011;22056;0.000;0.000;2023-03-20T16:04:10;2.30;;;1.08;;
35977;SDS011;22056;0.000;0.000;2023-03-20T16:06:43;6.53;;;1.20;;
35977;SDS011;22056;0.000;0.000;2023-03-20T16:09:11;5.35;;;1.48;;
35977;SDS011;22056;0.000;0.000;2023-03-20T16:11:40;4.70;;;1.60;;
35977;SDS011;22056;0.000;0.000;2023-03-20T16:14:08;4.85;;;1.38;;
35977;SDS011;22056;0.000;0.000;2023-03-20T16:16:35;8.63;;;1.25;;
35977;SDS011;22056;0.000;0.000;2023-03-20T16:19:05;2.95;;;1.00;;
35977;SDS011;22056;0.000;0.000;2023-03-20T16:21:35;5.97;;;1.40;;
35977;SDS011;22056;0.000;0.000;2023-03-20T16:24:06;5.32;;;1.25;;
35977;SDS011;22056;0.000;0.000;2023-03-20T16:26:35;5.50;;;1.50;;
35977;SDS011;22056;0.000;0.000;2023-03-20T16:29:02;5.65;;;1.20;;
35977;SDS011;22056;0.000;0.000;2023-03-20T16:31:35;5.03;;;1.38;;
35977;SDS011;22056;0.000;0.000;2023-03-20T16:34:07;2.80;;;0.90;;
35977;SDS011;22056;0.000;0.000;2023-03-20T16:36:35;7.43;;;1.10;;
35977;SDS011;22056;0.000;0.000;2023-03-20T16:39:05;4.22;;;1.00;;
35977;SDS011;22056;0.000;0.000;2023-03-20T16:41:33;3.35;;;1.27;;
35977;SDS011;22056;0.000;0.000;2023-03-20T16:44:09;7.63;;;1.10;;
35977;SDS011;22056;0.000;0.000;2023-03-20T16:46:36;4.40;;;1.33;;
35977;SDS011;22056;0.000;0.000;2023-03-20T16:51:57;4.50;;;1.25;;
35977;SDS011;22056;0.000;0.000;2023-03-20T16:54:25;5.28;;;1.10;;
35977;SDS011;22056;0.000;0.000;2023-03-20T16:56:53;3.65;;;1.10;;
35977;SDS011;22056;0.000;0.000;2023-03-20T16:59:20;5.00;;;1.13;;
35977;SDS011;22056;0.000;0.000;2023-03-20T17:01:47;3.72;;;1.27;;
35977;SDS011;22056;0.000;0.000;2023-03-20T17:04:20;5.20;;;1.38;;
35977;SDS011;22056;0.000;0.000;2023-03-20T17:07:10;4.43;;;1.13;;
35977;SDS011;22056;0.000;0.000;2023-03-20T17:09:32;3.10;;;1.10;;
35977;SDS011;22056;0.000;0.000;2023-03-20T17:12:20;2.75;;;1.00;;
35977;SDS011;22056;0.000;0.000;2023-03-20T17:14:45;3.17;;;1.10;;
35977;SDS011;22056;0.000;0.000;2023-03-20T17:17:12;3.25;;;1.13;;
35977;SDS011;22056;0.000;0.000;2023-03-20T17:19:38;4.47;;;1.02;;
35977;SDS011;22056;0.000;0.000;2023-03-20T17:22:10;3.25;;;1.08;;
35977;SDS011;22056;0.000;0.000;2023-03-20T17:24:36;3.42;;;1.00;;
35977;SDS011;22056;0.000;0.000;2023-03-20T17:27:02;3.70;;;1.05;;
35977;SDS011;22056;0.000;0.000;2023-03-20T17:29:29;6.03;;;0.93;;
35977;SDS011;22056;0.000;0.000;2023-03-20T17:31:55;2.70;;;0.88;;
35977;SDS011;22056;0.000;0.000;2023-03-20T17:34:21;6.15;;;1.20;;
35977;SDS011;22056;0.000;0.000;2023-03-20T17:36:47;2.22;;;1.02;;
35977;SDS011;22056;0.000;0.000;2023-03-20T17:39:16;2.83;;;1.20;;
35977;SDS011;22056;0.000;0.000;2023-03-20T17:41:43;4.75;;;1.15;;
35977;SDS011;22056;0.000;0.000;2023-03-20T17:44:09;3.75;;;1.10;;
35977;SDS011;22056;0.000;0.000;2023-03-20T17:46:35;6.03;;;1.25;;
35977;SDS011;22056;0.000;0.000;2023-03-20T17:49:03;6.07;;;1.10;;
35977;SDS011;22056;0.000;0.000;2023-03-20T17:51:30;3.28;;;0.80;;